createdAt,value
2023-02-11T00:00:42.378Z,5.5
2023-02-11T00:05:42.610Z,5.5
2023-02-11T00:10:42.614Z,5.5
2023-02-11T00:15:42.819Z,5.5
2023-02-11T00:20:42.132Z,5.5
2023-02-11T00:25:42.270Z,5.5
2023-02-11T00:30:42.723Z,5.5
2023-02-11T00:35:41.937Z,5.5
2023-02-11T00:40:42.247Z,5.5
2023-02-11T00:45:42.454Z,5.5
2023-02-11T00:50:42.540Z,5.4
2023-02-11T00:55:42.850Z,5.4
2023-02-11T01:00:43.006Z,5.4
2023-02-11T01:05:42.272Z,5.4
2023-02-11T01:10:42.468Z,5.4
2023-02-11T01:15:42.379Z,5.4
2023-02-11T01:20:42.916Z,5.4
2023-02-11T01:25:42.061Z,5.4
2023-02-11T01:30:42.277Z,5.4
2023-02-11T01:35:42.452Z,5.4
2023-02-11T01:40:42.667Z,5.4
2023-02-11T01:45:42.771Z,5.4
2023-02-11T01:50:42.786Z,5.5
2023-02-11T01:55:42.682Z,5.5
2023-02-11T02:00:42.996Z,5.6
2023-02-11T02:05:42.171Z,5.6
2023-02-11T02:10:42.374Z,5.7
2023-02-11T02:15:42.520Z,5.7
2023-02-11T02:20:42.828Z,5.7
2023-02-11T02:25:42.139Z,5.7
2023-02-11T02:30:42.252Z,5.8
2023-02-11T02:35:42.372Z,5.8
2023-02-11T02:40:42.570Z,5.8
2023-02-11T02:45:42.474Z,5.8
2023-02-11T02:50:42.487Z,5.8
2023-02-11T02:55:42.539Z,5.8
2023-02-11T03:00:42.627Z,5.9
2023-02-11T03:05:42.701Z,5.9
2023-02-11T03:10:42.966Z,5.9
2023-02-11T03:15:42.019Z,5.9
2023-02-11T03:20:42.535Z,6
2023-02-11T03:25:42.641Z,6
2023-02-11T03:30:42.279Z,6.1
2023-02-11T03:35:42.895Z,6.1
2023-02-11T03:40:42.114Z,6.1
2023-02-11T03:45:42.236Z,6.1
2023-02-11T03:50:42.721Z,6.1
2023-02-11T03:55:42.126Z,6.1
2023-02-11T04:00:42.298Z,6.2
2023-02-11T04:05:42.194Z,6.2
2023-02-11T04:10:42.884Z,6.2
2023-02-11T04:15:42.965Z,6.2
2023-02-11T04:20:42.183Z,6.2
2023-02-11T04:25:42.274Z,6.2
2023-02-11T04:30:43.117Z,6.3
2023-02-11T04:35:42.281Z,6.3
2023-02-11T04:40:42.326Z,6.3
2023-02-11T04:45:42.324Z,6.3
2023-02-11T04:50:42.518Z,6.4
2023-02-11T04:55:42.671Z,6.4
2023-02-11T05:00:42.913Z,6.5
2023-02-11T05:05:43.060Z,6.5
2023-02-11T05:10:42.494Z,6.6
2023-02-11T05:15:42.747Z,6.6
2023-02-11T05:20:42.952Z,6.6
2023-02-11T05:25:42.070Z,6.6
2023-02-11T05:30:42.349Z,6.7
2023-02-11T05:35:42.541Z,6.7
2023-02-11T05:40:42.672Z,6.7
2023-02-11T05:45:42.680Z,6.7
2023-02-11T05:50:43.038Z,6.7
2023-02-11T05:55:42.396Z,6.7
2023-02-11T06:00:42.499Z,6.7
2023-02-11T06:05:43.146Z,6.7
2023-02-11T06:10:42.258Z,6.8
2023-02-11T06:15:42.363Z,6.8
2023-02-11T06:20:42.576Z,6.8
2023-02-11T06:25:42.592Z,6.8
2023-02-11T06:30:42.730Z,6.9
2023-02-11T06:35:43.045Z,6.9
2023-02-11T06:40:43.096Z,6.9
2023-02-11T06:45:42.407Z,6.9
2023-02-11T06:50:42.562Z,7
2023-02-11T06:55:42.911Z,7
2023-02-11T07:00:43.319Z,7.1
2023-02-11T07:05:42.337Z,7.1
2023-02-11T07:10:42.393Z,7.1
2023-02-11T07:15:42.339Z,7.1
2023-02-11T07:20:42.435Z,7.2
2023-02-11T07:25:42.495Z,7.2
2023-02-11T07:30:42.739Z,7.2
2023-02-11T07:35:42.923Z,7.2
2023-02-11T07:40:42.909Z,7.3
2023-02-11T07:45:42.909Z,7.3
2023-02-11T07:50:43.000Z,7.3
2023-02-11T07:55:43.135Z,7.3
2023-02-11T08:00:42.388Z,7.3
2023-02-11T08:05:42.619Z,7.3
2023-02-11T08:10:42.833Z,7.4
2023-02-11T08:15:42.877Z,7.4
2023-02-11T08:20:42.963Z,7.4
2023-02-11T08:25:43.074Z,7.4
2023-02-11T08:30:43.266Z,7.4
2023-02-11T08:35:42.284Z,7.4
2023-02-11T08:40:42.569Z,7.5
2023-02-11T08:45:42.631Z,7.5
2023-02-11T08:50:42.782Z,7.5
2023-02-11T08:55:42.850Z,7.5
2023-02-11T09:00:43.032Z,7.6
2023-02-11T09:05:43.212Z,7.6
2023-02-11T09:10:42.509Z,7.6
2023-02-11T09:15:42.580Z,7.6
2023-02-11T09:20:42.720Z,7.6
2023-02-11T09:25:42.838Z,7.6
2023-02-11T09:30:42.400Z,7.6
2023-02-11T09:35:42.904Z,7.6
2023-02-11T09:40:42.334Z,7.7
2023-02-11T09:45:42.599Z,7.7
2023-02-11T09:50:42.564Z,7.7
2023-02-11T09:55:42.738Z,7.7
2023-02-11T10:00:42.998Z,7.7
2023-02-11T10:05:43.034Z,7.7
2023-02-11T10:10:43.318Z,7.8
2023-02-11T10:15:42.467Z,7.8
2023-02-11T10:20:42.646Z,7.8
2023-02-11T10:25:45.180Z,7.8
2023-02-11T10:30:42.731Z,7.9
2023-02-11T10:35:42.893Z,7.9
2023-02-11T10:40:43.211Z,7.9
2023-02-11T10:45:43.222Z,7.9
2023-02-11T10:50:42.273Z,8
2023-02-11T10:55:43.271Z,8
2023-02-11T11:00:42.473Z,8
2023-02-11T11:05:42.494Z,8
2023-02-11T11:10:42.639Z,8.1
2023-02-11T11:15:42.737Z,8.1
2023-02-11T11:20:42.978Z,8.1
2023-02-11T11:25:43.097Z,8.1
2023-02-11T11:30:43.360Z,8.2
2023-02-11T11:35:42.502Z,8.2
2023-02-11T11:40:42.582Z,8.2
2023-02-11T11:45:42.586Z,8.2
2023-02-11T11:50:42.713Z,8.2
2023-02-11T11:55:42.734Z,8.2
2023-02-11T12:00:42.796Z,8.2
2023-02-11T12:05:43.108Z,8.2
2023-02-11T12:10:43.320Z,8.2
2023-02-11T12:15:42.326Z,8.2
2023-02-11T12:20:42.369Z,8.2
2023-02-11T12:25:42.392Z,8.2
2023-02-11T12:30:42.667Z,8.3
2023-02-11T12:35:43.125Z,8.3
2023-02-11T12:40:43.326Z,8.4
2023-02-11T12:45:42.446Z,8.4
2023-02-11T12:50:42.559Z,8.4
2023-02-11T12:55:42.551Z,8.4
2023-02-11T13:00:43.404Z,8.4
2023-02-11T13:05:42.557Z,8.4
2023-02-11T13:10:42.781Z,8.4
2023-02-11T13:15:42.852Z,8.4
2023-02-11T13:20:42.951Z,8.4
2023-02-11T13:25:43.016Z,8.4
2023-02-11T13:30:43.276Z,8.4
2023-02-11T13:35:42.560Z,8.4
2023-02-11T13:40:42.570Z,8.4
2023-02-11T13:45:42.754Z,8.4
2023-02-11T13:50:42.964Z,8.4
2023-02-11T13:55:43.037Z,8.4
2023-02-11T14:00:42.971Z,8.4
2023-02-11T14:05:43.034Z,8.4
2023-02-11T14:10:43.184Z,8.4
2023-02-11T14:15:43.144Z,8.4
2023-02-11T14:20:43.209Z,8.4
2023-02-11T14:25:43.268Z,8.4
2023-02-11T14:30:43.189Z,8.5
2023-02-11T14:35:43.358Z,8.5
2023-02-11T14:40:42.536Z,8.6
2023-02-11T14:45:42.723Z,8.6
2023-02-11T14:50:42.865Z,8.5
2023-02-11T14:55:43.356Z,8.5
2023-02-11T15:00:42.571Z,8.5
2023-02-11T15:05:43.353Z,8.5
2023-02-11T15:10:42.593Z,8.4
2023-02-11T15:15:42.497Z,8.4
2023-02-11T15:20:43.337Z,8.4
2023-02-11T15:25:43.066Z,8.4
2023-02-11T15:30:43.357Z,8.4
2023-02-11T15:35:42.836Z,8.4
2023-02-11T15:40:43.396Z,8.3
2023-02-11T15:45:42.474Z,8.3
2023-02-11T15:50:42.767Z,8.2
2023-02-11T15:55:43.314Z,8.2
2023-02-11T16:00:42.579Z,8.2
2023-02-11T16:05:43.054Z,8.2
2023-02-11T16:10:43.300Z,8.1
2023-02-11T16:15:43.334Z,8.1
2023-02-11T16:20:42.716Z,8.1
2023-02-11T16:25:42.818Z,8.1
2023-02-11T16:30:43.133Z,8
2023-02-11T16:35:43.482Z,8
2023-02-11T16:40:42.509Z,7.9
2023-02-11T16:45:42.996Z,7.9
2023-02-11T16:50:43.328Z,7.8
2023-02-11T16:55:43.332Z,7.8
2023-02-11T17:00:42.660Z,7.8
2023-02-11T17:05:54.628Z,7.8
2023-02-11T17:10:43.292Z,7.7
2023-02-11T17:15:43.347Z,7.7
2023-02-11T17:20:43.442Z,7.7
2023-02-11T17:25:43.424Z,7.7
2023-02-11T17:30:42.659Z,7.6
2023-02-11T17:35:42.674Z,7.6
2023-02-11T17:40:42.751Z,7.6
2023-02-11T17:45:43.149Z,7.6
2023-02-11T17:50:43.395Z,7.6
2023-02-11T17:55:43.420Z,7.6
2023-02-11T18:00:43.523Z,7.5
2023-02-11T18:05:42.793Z,7.5
2023-02-11T18:10:42.837Z,7.5
2023-02-11T18:15:42.860Z,7.5
2023-02-11T18:20:42.878Z,7.4
2023-02-11T18:25:42.936Z,7.4
2023-02-11T18:30:43.136Z,7.4
2023-02-11T18:35:43.373Z,7.4
2023-02-11T18:40:43.456Z,7.4
2023-02-11T18:45:43.390Z,7.4
2023-02-11T18:50:43.609Z,7.4
2023-02-11T18:55:42.637Z,7.4
2023-02-11T19:00:42.722Z,7.3
2023-02-11T19:05:42.870Z,7.3
2023-02-11T19:10:42.917Z,7.3
2023-02-11T19:15:43.092Z,7.3
2023-02-11T19:20:43.119Z,7.3
2023-02-11T19:25:43.249Z,7.3
2023-02-11T19:30:42.707Z,7.3
2023-02-11T19:35:43.142Z,7.3
2023-02-11T19:40:43.188Z,7.3
2023-02-11T19:45:43.265Z,7.3
2023-02-11T19:50:43.356Z,7.3
2023-02-11T19:55:43.416Z,7.3
2023-02-11T20:00:43.505Z,7.3
2023-02-11T20:05:43.522Z,7.3
2023-02-11T20:10:43.794Z,7.2
2023-02-11T20:15:42.982Z,7.2
2023-02-11T20:20:43.117Z,7.2
2023-02-11T20:25:43.207Z,7.2
2023-02-11T20:30:43.306Z,7.3
2023-02-11T20:35:43.413Z,7.3
2023-02-11T20:40:43.464Z,7.3
2023-02-11T20:45:42.580Z,7.3
2023-02-11T20:50:42.753Z,7.3
2023-02-11T20:55:42.798Z,7.3
2023-02-11T21:00:43.206Z,7.3
2023-02-11T21:05:43.297Z,7.3
2023-02-11T21:10:42.654Z,7.3
2023-02-11T21:15:42.705Z,7.3
2023-02-11T21:20:43.082Z,7.3
2023-02-11T21:25:43.290Z,7.3
2023-02-11T21:30:42.789Z,7.3
2023-02-11T21:35:43.004Z,7.3
2023-02-11T21:40:43.167Z,7.3
2023-02-11T21:45:43.213Z,7.3
2023-02-11T21:50:43.502Z,7.3
2023-02-11T21:55:42.971Z,7.3
2023-02-11T22:00:43.284Z,7.3
2023-02-11T22:05:43.595Z,7.3
2023-02-11T22:10:42.881Z,7.3
2023-02-11T22:15:43.464Z,7.3
2023-02-11T22:20:43.625Z,7.3
2023-02-11T22:25:43.565Z,7.3
2023-02-11T22:30:43.585Z,7.3
2023-02-11T22:35:43.684Z,7.3
2023-02-11T22:40:43.671Z,7.3
2023-02-11T22:45:43.792Z,7.3
2023-02-11T22:50:42.854Z,7.3
2023-02-11T22:55:42.932Z,7.3
2023-02-11T23:00:43.441Z,7.3
2023-02-11T23:05:43.481Z,7.3
2023-02-11T23:10:42.874Z,7.3
2023-02-11T23:15:42.943Z,7.3
2023-02-11T23:20:42.963Z,7.3
2023-02-11T23:25:43.090Z,7.3
2023-02-11T23:30:43.258Z,7.3
2023-02-11T23:35:43.286Z,7.3
2023-02-11T23:40:43.124Z,7.3
2023-02-11T23:45:43.275Z,7.3
2023-02-11T23:55:43.513Z,7.3
